sensor_id;sensor_type;location;lat;lon;timestamp;P1;durP1;ratioP1;P2;durP2;ratioP2
52894;SDS011;38759;53.396;6.722;2023-09-07T00:01:48;5.32;;;3.72;;
52894;SDS011;38759;53.396;6.722;2023-09-07T00:04:14;8.85;;;4.07;;
52894;SDS011;38759;53.396;6.722;2023-09-07T00:06:40;4.90;;;4.20;;
52894;SDS011;38759;53.396;6.722;2023-09-07T00:09:08;5.72;;;4.03;;
52894;SDS011;38759;53.396;6.722;2023-09-07T00:11:36;6.13;;;4.40;;
52894;SDS011;38759;53.396;6.722;2023-09-07T00:14:02;12.07;;;4.70;;
52894;SDS011;38759;53.396;6.722;2023-09-07T00:16:30;8.57;;;4.30;;
52894;SDS011;38759;53.396;6.722;2023-09-07T00:18:59;6.55;;;4.45;;
52894;SDS011;38759;53.396;6.722;2023-09-07T00:21:24;6.25;;;4.40;;
52894;SDS011;38759;53.396;6.722;2023-09-07T00:23:50;8.25;;;4.50;;
52894;SDS011;38759;53.396;6.722;2023-09-07T00:26:16;4.70;;;4.30;;
52894;SDS011;38759;53.396;6.722;2023-09-07T00:28:41;8.25;;;4.88;;
52894;SDS011;38759;53.396;6.722;2023-09-07T00:31:07;5.07;;;4.28;;
52894;SDS011;38759;53.396;6.722;2023-09-07T00:33:33;5.40;;;4.53;;
52894;SDS011;38759;53.396;6.722;2023-09-07T00:36:01;6.53;;;4.35;;
52894;SDS011;38759;53.396;6.722;2023-09-07T00:38:27;6.63;;;4.55;;
52894;SDS011;38759;53.396;6.722;2023-09-07T00:40:53;8.70;;;4.55;;
52894;SDS011;38759;53.396;6.722;2023-09-07T00:43:18;5.50;;;4.60;;
52894;SDS011;38759;53.396;6.722;2023-09-07T00:45:44;6.15;;;4.50;;
52894;SDS011;38759;53.396;6.722;2023-09-07T00:48:11;6.90;;;4.35;;
52894;SDS011;38759;53.396;6.722;2023-09-07T00:50:38;9.52;;;4.45;;
52894;SDS011;38759;53.396;6.722;2023-09-07T00:53:04;8.60;;;4.60;;
52894;SDS011;38759;53.396;6.722;2023-09-07T00:55:32;8.40;;;4.43;;
52894;SDS011;38759;53.396;6.722;2023-09-07T00:58:00;6.00;;;4.38;;
52894;SDS011;38759;53.396;6.722;2023-09-07T01:00:28;4.97;;;4.00;;
52894;SDS011;38759;53.396;6.722;2023-09-07T01:02:54;5.60;;;4.03;;
52894;SDS011;38759;53.396;6.722;2023-09-07T01:05:32;4.50;;;4.10;;
52894;SDS011;38759;53.396;6.722;2023-09-07T01:08:07;6.97;;;4.00;;
52894;SDS011;38759;53.396;6.722;2023-09-07T01:10:39;12.32;;;4.80;;
52894;SDS011;38759;53.396;6.722;2023-09-07T01:13:05;8.10;;;4.13;;
52894;SDS011;38759;53.396;6.722;2023-09-07T01:15:30;5.30;;;4.10;;
52894;SDS011;38759;53.396;6.722;2023-09-07T01:17:56;5.25;;;3.60;;
52894;SDS011;38759;53.396;6.722;2023-09-07T01:20:23;7.70;;;3.78;;
52894;SDS011;38759;53.396;6.722;2023-09-07T01:22:50;7.63;;;3.83;;
52894;SDS011;38759;53.396;6.722;2023-09-07T01:25:16;7.25;;;4.35;;
52894;SDS011;38759;53.396;6.722;2023-09-07T01:27:42;8.07;;;4.30;;
52894;SDS011;38759;53.396;6.722;2023-09-07T01:30:08;7.93;;;4.15;;
52894;SDS011;38759;53.396;6.722;2023-09-07T01:32:35;6.03;;;3.85;;
52894;SDS011;38759;53.396;6.722;2023-09-07T01:35:01;7.43;;;3.63;;
52894;SDS011;38759;53.396;6.722;2023-09-07T01:37:31;6.35;;;3.45;;
52894;SDS011;38759;53.396;6.722;2023-09-07T01:39:57;7.00;;;3.80;;
52894;SDS011;38759;53.396;6.722;2023-09-07T01:42:23;7.95;;;3.95;;
52894;SDS011;38759;53.396;6.722;2023-09-07T01:44:48;4.15;;;3.58;;
52894;SDS011;38759;53.396;6.722;2023-09-07T01:47:14;7.20;;;3.88;;
52894;SDS011;38759;53.396;6.722;2023-09-07T01:49:40;5.30;;;4.10;;
52894;SDS011;38759;53.396;6.722;2023-09-07T01:52:05;6.03;;;3.70;;
52894;SDS011;38759;53.396;6.722;2023-09-07T01:54:31;7.95;;;4.18;;
52894;SDS011;38759;53.396;6.722;2023-09-07T01:56:57;6.10;;;4.18;;
52894;SDS011;38759;53.396;6.722;2023-09-07T01:59:23;6.20;;;4.57;;
52894;SDS011;38759;53.396;6.722;2023-09-07T02:01:49;5.13;;;4.00;;
52894;SDS011;38759;53.396;6.722;2023-09-07T02:04:14;7.75;;;3.55;;
52894;SDS011;38759;53.396;6.722;2023-09-07T02:06:40;7.20;;;4.00;;
52894;SDS011;38759;53.396;6.722;2023-09-07T02:09:05;6.35;;;3.90;;
52894;SDS011;38759;53.396;6.722;2023-09-07T02:11:32;5.60;;;3.95;;
52894;SDS011;38759;53.396;6.722;2023-09-07T02:13:58;8.10;;;4.07;;
52894;SDS011;38759;53.396;6.722;2023-09-07T02:16:24;9.50;;;4.38;;
52894;SDS011;38759;53.396;6.722;2023-09-07T02:18:50;6.30;;;4.22;;
52894;SDS011;38759;53.396;6.722;2023-09-07T02:21:16;5.60;;;4.20;;
52894;SDS011;38759;53.396;6.722;2023-09-07T02:23:41;5.53;;;4.30;;
52894;SDS011;38759;53.396;6.722;2023-09-07T02:26:07;4.72;;;3.72;;
52894;SDS011;38759;53.396;6.722;2023-09-07T02:28:33;11.77;;;4.20;;
52894;SDS011;38759;53.396;6.722;2023-09-07T02:31:02;8.65;;;4.97;;
52894;SDS011;38759;53.396;6.722;2023-09-07T02:33:31;7.25;;;4.32;;
52894;SDS011;38759;53.396;6.722;2023-09-07T02:35:57;6.95;;;4.50;;
52894;SDS011;38759;53.396;6.722;2023-09-07T02:38:23;6.45;;;4.20;;
52894;SDS011;38759;53.396;6.722;2023-09-07T02:40:49;8.82;;;4.63;;
52894;SDS011;38759;53.396;6.722;2023-09-07T02:43:15;9.55;;;4.55;;
52894;SDS011;38759;53.396;6.722;2023-09-07T02:45:41;6.28;;;4.40;;
52894;SDS011;38759;53.396;6.722;2023-09-07T02:48:07;8.48;;;4.47;;
52894;SDS011;38759;53.396;6.722;2023-09-07T02:50:33;8.13;;;4.25;;
52894;SDS011;38759;53.396;6.722;2023-09-07T02:52:59;5.30;;;4.32;;
52894;SDS011;38759;53.396;6.722;2023-09-07T02:55:28;7.65;;;4.40;;
52894;SDS011;38759;53.396;6.722;2023-09-07T02:57:55;7.30;;;4.75;;
52894;SDS011;38759;53.396;6.722;2023-09-07T03:00:21;8.48;;;4.47;;
52894;SDS011;38759;53.396;6.722;2023-09-07T03:02:47;7.38;;;5.32;;
52894;SDS011;38759;53.396;6.722;2023-09-07T03:05:14;8.05;;;5.40;;
52894;SDS011;38759;53.396;6.722;2023-09-07T03:07:44;7.68;;;5.25;;
52894;SDS011;38759;53.396;6.722;2023-09-07T03:10:10;6.10;;;5.05;;
52894;SDS011;38759;53.396;6.722;2023-09-07T03:12:36;8.25;;;5.15;;
52894;SDS011;38759;53.396;6.722;2023-09-07T03:15:02;8.98;;;4.80;;
52894;SDS011;38759;53.396;6.722;2023-09-07T03:17:29;7.68;;;4.72;;
52894;SDS011;38759;53.396;6.722;2023-09-07T03:19:55;6.75;;;4.50;;
52894;SDS011;38759;53.396;6.722;2023-09-07T03:22:20;5.22;;;4.50;;
52894;SDS011;38759;53.396;6.722;2023-09-07T03:24:49;5.43;;;4.80;;
52894;SDS011;38759;53.396;6.722;2023-09-07T03:27:17;8.50;;;5.32;;
52894;SDS011;38759;53.396;6.722;2023-09-07T03:29:46;7.72;;;4.65;;
52894;SDS011;38759;53.396;6.722;2023-09-07T03:32:16;6.20;;;4.90;;
52894;SDS011;38759;53.396;6.722;2023-09-07T03:34:42;10.35;;;4.68;;
52894;SDS011;38759;53.396;6.722;2023-09-07T03:37:07;9.82;;;4.63;;
52894;SDS011;38759;53.396;6.722;2023-09-07T03:39:36;7.47;;;5.35;;
52894;SDS011;38759;53.396;6.722;2023-09-07T03:42:02;8.45;;;4.82;;
52894;SDS011;38759;53.396;6.722;2023-09-07T03:44:28;10.55;;;5.35;;
52894;SDS011;38759;53.396;6.722;2023-09-07T03:46:53;6.35;;;4.28;;
52894;SDS011;38759;53.396;6.722;2023-09-07T03:49:19;6.90;;;4.22;;
52894;SDS011;38759;53.396;6.722;2023-09-07T03:51:45;11.68;;;4.82;;
52894;SDS011;38759;53.396;6.722;2023-09-07T03:54:11;6.97;;;4.45;;
52894;SDS011;38759;53.396;6.722;2023-09-07T03:56:36;7.63;;;4.85;;
52894;SDS011;38759;53.396;6.722;2023-09-07T03:59:02;11.65;;;5.82;;
52894;SDS011;38759;53.396;6.722;2023-09-07T04:01:28;6.50;;;4.57;;
52894;SDS011;38759;53.396;6.722;2023-09-07T04:03:53;9.38;;;5.15;;
52894;SDS011;38759;53.396;6.722;2023-09-07T04:06:19;5.90;;;4.82;;
52894;SDS011;38759;53.396;6.722;2023-09-07T04:08:45;8.30;;;5.55;;
52894;SDS011;38759;53.396;6.722;2023-09-07T04:11:10;6.75;;;5.22;;
52894;SDS011;38759;53.396;6.722;2023-09-07T04:13:36;6.93;;;4.80;;
52894;SDS011;38759;53.396;6.722;2023-09-07T04:16:01;5.18;;;4.50;;
52894;SDS011;38759;53.396;6.722;2023-09-07T04:18:27;6.80;;;5.05;;
52894;SDS011;38759;53.396;6.722;2023-09-07T04:20:53;7.75;;;4.60;;
52894;SDS011;38759;53.396;6.722;2023-09-07T04:23:29;9.02;;;5.20;;
52894;SDS011;38759;53.396;6.722;2023-09-07T04:26:03;9.30;;;4.70;;
52894;SDS011;38759;53.396;6.722;2023-09-07T04:28:35;8.15;;;5.00;;
52894;SDS011;38759;53.396;6.722;2023-09-07T04:31:02;9.75;;;5.38;;
52894;SDS011;38759;53.396;6.722;2023-09-07T04:33:32;8.07;;;5.32;;
52894;SDS011;38759;53.396;6.722;2023-09-07T04:36:11;7.45;;;5.10;;
52894;SDS011;38759;53.396;6.722;2023-09-07T04:38:38;9.30;;;4.90;;
52894;SDS011;38759;53.396;6.722;2023-09-07T04:41:05;8.93;;;5.10;;
52894;SDS011;38759;53.396;6.722;2023-09-07T04:43:34;10.82;;;4.85;;
52894;SDS011;38759;53.396;6.722;2023-09-07T04:46:01;8.02;;;4.65;;
52894;SDS011;38759;53.396;6.722;2023-09-07T04:48:28;6.88;;;4.68;;
52894;SDS011;38759;53.396;6.722;2023-09-07T04:51:04;9.88;;;5.43;;
52894;SDS011;38759;53.396;6.722;2023-09-07T04:53:31;6.60;;;5.15;;
52894;SDS011;38759;53.396;6.722;2023-09-07T04:55:58;11.70;;;5.32;;
52894;SDS011;38759;53.396;6.722;2023-09-07T04:58:24;11.60;;;5.07;;
52894;SDS011;38759;53.396;6.722;2023-09-07T05:00:50;9.68;;;5.35;;
52894;SDS011;38759;53.396;6.722;2023-09-07T05:03:16;8.88;;;5.25;;
52894;SDS011;38759;53.396;6.722;2023-09-07T05:05:42;8.30;;;5.47;;
52894;SDS011;38759;53.396;6.722;2023-09-07T05:08:11;7.07;;;5.68;;
52894;SDS011;38759;53.396;6.722;2023-09-07T05:10:37;7.43;;;5.75;;
52894;SDS011;38759;53.396;6.722;2023-09-07T05:13:03;8.30;;;5.82;;
52894;SDS011;38759;53.396;6.722;2023-09-07T05:15:29;8.57;;;5.85;;
52894;SDS011;38759;53.396;6.722;2023-09-07T05:17:55;10.50;;;5.85;;
52894;SDS011;38759;53.396;6.722;2023-09-07T05:20:21;6.50;;;5.05;;
52894;SDS011;38759;53.396;6.722;2023-09-07T05:22:47;9.07;;;5.40;;
52894;SDS011;38759;53.396;6.722;2023-09-07T05:25:12;8.40;;;5.55;;
52894;SDS011;38759;53.396;6.722;2023-09-07T05:27:39;6.93;;;5.72;;
52894;SDS011;38759;53.396;6.722;2023-09-07T05:30:05;7.68;;;5.32;;
52894;SDS011;38759;53.396;6.722;2023-09-07T05:32:32;8.68;;;5.22;;
52894;SDS011;38759;53.396;6.722;2023-09-07T05:34:58;8.40;;;5.63;;
52894;SDS011;38759;53.396;6.722;2023-09-07T05:37:23;14.50;;;6.07;;
52894;SDS011;38759;53.396;6.722;2023-09-07T05:39:49;7.13;;;5.47;;
52894;SDS011;38759;53.396;6.722;2023-09-07T05:42:15;7.32;;;5.90;;
52894;SDS011;38759;53.396;6.722;2023-09-07T05:44:41;7.68;;;5.80;;
52894;SDS011;38759;53.396;6.722;2023-09-07T05:47:07;7.90;;;5.70;;
52894;SDS011;38759;53.396;6.722;2023-09-07T05:49:32;9.55;;;5.43;;
52894;SDS011;38759;53.396;6.722;2023-09-07T05:51:58;7.70;;;6.18;;
52894;SDS011;38759;53.396;6.722;2023-09-07T05:54:24;6.93;;;5.55;;
52894;SDS011;38759;53.396;6.722;2023-09-07T05:56:50;8.48;;;6.07;;
52894;SDS011;38759;53.396;6.722;2023-09-07T05:59:15;9.32;;;5.50;;
52894;SDS011;38759;53.396;6.722;2023-09-07T06:01:41;6.88;;;5.43;;
52894;SDS011;38759;53.396;6.722;2023-09-07T06:04:06;9.88;;;5.70;;
52894;SDS011;38759;53.396;6.722;2023-09-07T06:06:33;9.82;;;6.55;;
52894;SDS011;38759;53.396;6.722;2023-09-07T06:08:58;8.13;;;6.53;;
52894;SDS011;38759;53.396;6.722;2023-09-07T06:11:24;8.18;;;5.70;;
52894;SDS011;38759;53.396;6.722;2023-09-07T06:13:51;7.25;;;6.28;;
52894;SDS011;38759;53.396;6.722;2023-09-07T06:16:17;7.35;;;6.38;;
52894;SDS011;38759;53.396;6.722;2023-09-07T06:18:43;11.75;;;6.88;;
52894;SDS011;38759;53.396;6.722;2023-09-07T06:21:09;9.70;;;6.72;;
52894;SDS011;38759;53.396;6.722;2023-09-07T06:23:34;11.43;;;7.05;;
52894;SDS011;38759;53.396;6.722;2023-09-07T06:26:00;8.60;;;6.28;;
52894;SDS011;38759;53.396;6.722;2023-09-07T06:28:26;12.45;;;6.20;;
52894;SDS011;38759;53.396;6.722;2023-09-07T06:30:52;10.25;;;6.30;;
52894;SDS011;38759;53.396;6.722;2023-09-07T06:33:18;11.52;;;6.43;;
52894;SDS011;38759;53.396;6.722;2023-09-07T06:35:44;10.05;;;6.65;;
52894;SDS011;38759;53.396;6.722;2023-09-07T06:38:09;7.38;;;6.32;;
52894;SDS011;38759;53.396;6.722;2023-09-07T06:40:35;9.43;;;6.05;;
52894;SDS011;38759;53.396;6.722;2023-09-07T06:43:01;7.93;;;5.35;;
52894;SDS011;38759;53.396;6.722;2023-09-07T06:45:33;7.53;;;5.47;;
52894;SDS011;38759;53.396;6.722;2023-09-07T06:48:02;10.93;;;6.15;;
52894;SDS011;38759;53.396;6.722;2023-09-07T06:50:28;10.05;;;5.55;;
52894;SDS011;38759;53.396;6.722;2023-09-07T06:52:54;8.82;;;6.00;;
52894;SDS011;38759;53.396;6.722;2023-09-07T06:55:20;7.57;;;5.65;;
52894;SDS011;38759;53.396;6.722;2023-09-07T06:57:45;10.13;;;5.65;;
52894;SDS011;38759;53.396;6.722;2023-09-07T07:00:11;6.95;;;5.63;;
52894;SDS011;38759;53.396;6.722;2023-09-07T07:02:37;6.65;;;5.65;;
52894;SDS011;38759;53.396;6.722;2023-09-07T07:05:03;7.03;;;4.97;;
52894;SDS011;38759;53.396;6.722;2023-09-07T07:07:30;8.73;;;5.47;;
52894;SDS011;38759;53.396;6.722;2023-09-07T07:09:55;11.68;;;7.25;;
52894;SDS011;38759;53.396;6.722;2023-09-07T07:12:21;9.40;;;6.43;;
52894;SDS011;38759;53.396;6.722;2023-09-07T07:14:47;7.30;;;6.50;;
52894;SDS011;38759;53.396;6.722;2023-09-07T07:17:13;8.75;;;6.60;;
52894;SDS011;38759;53.396;6.722;2023-09-07T07:19:38;7.88;;;6.72;;
52894;SDS011;38759;53.396;6.722;2023-09-07T07:22:04;10.52;;;6.13;;
52894;SDS011;38759;53.396;6.722;2023-09-07T07:24:30;11.85;;;5.78;;
52894;SDS011;38759;53.396;6.722;2023-09-07T07:26:55;8.13;;;5.43;;
52894;SDS011;38759;53.396;6.722;2023-09-07T07:29:21;9.55;;;5.80;;
52894;SDS011;38759;53.396;6.722;2023-09-07T07:31:46;9.55;;;6.10;;
52894;SDS011;38759;53.396;6.722;2023-09-07T07:34:12;6.95;;;5.20;;
52894;SDS011;38759;53.396;6.722;2023-09-07T07:36:38;12.32;;;6.28;;
52894;SDS011;38759;53.396;6.722;2023-09-07T07:39:04;9.32;;;5.32;;
52894;SDS011;38759;53.396;6.722;2023-09-07T07:41:32;6.28;;;5.63;;
52894;SDS011;38759;53.396;6.722;2023-09-07T07:43:58;8.25;;;5.70;;
52894;SDS011;38759;53.396;6.722;2023-09-07T07:46:24;9.63;;;5.63;;
52894;SDS011;38759;53.396;6.722;2023-09-07T07:48:50;8.82;;;5.15;;
52894;SDS011;38759;53.396;6.722;2023-09-07T07:51:15;7.40;;;5.50;;
52894;SDS011;38759;53.396;6.722;2023-09-07T07:53:41;7.28;;;5.78;;
52894;SDS011;38759;53.396;6.722;2023-09-07T07:56:16;7.05;;;5.45;;
52894;SDS011;38759;53.396;6.722;2023-09-07T07:58:43;11.57;;;5.63;;
52894;SDS011;38759;53.396;6.722;2023-09-07T08:01:14;9.52;;;5.93;;
52894;SDS011;38759;53.396;6.722;2023-09-07T08:03:40;8.60;;;5.18;;
52894;SDS011;38759;53.396;6.722;2023-09-07T08:06:07;9.35;;;5.65;;
52894;SDS011;38759;53.396;6.722;2023-09-07T08:08:32;7.57;;;5.65;;
52894;SDS011;38759;53.396;6.722;2023-09-07T08:10:58;7.68;;;5.45;;
52894;SDS011;38759;53.396;6.722;2023-09-07T08:13:25;8.85;;;5.75;;
52894;SDS011;38759;53.396;6.722;2023-09-07T08:15:50;9.45;;;6.40;;
52894;SDS011;38759;53.396;6.722;2023-09-07T08:18:16;6.90;;;6.20;;
52894;SDS011;38759;53.396;6.722;2023-09-07T08:20:42;10.88;;;6.75;;
52894;SDS011;38759;53.396;6.722;2023-09-07T08:23:07;8.15;;;5.95;;
52894;SDS011;38759;53.396;6.722;2023-09-07T08:25:35;11.15;;;6.20;;
52894;SDS011;38759;53.396;6.722;2023-09-07T08:28:01;7.45;;;5.82;;
52894;SDS011;38759;53.396;6.722;2023-09-07T08:30:30;7.43;;;5.10;;
52894;SDS011;38759;53.396;6.722;2023-09-07T08:32:56;10.57;;;5.18;;
52894;SDS011;38759;53.396;6.722;2023-09-07T08:35:22;11.65;;;5.72;;
52894;SDS011;38759;53.396;6.722;2023-09-07T08:37:52;7.78;;;5.35;;
52894;SDS011;38759;53.396;6.722;2023-09-07T08:40:19;8.00;;;5.18;;
52894;SDS011;38759;53.396;6.722;2023-09-07T08:42:46;8.80;;;5.75;;
52894;SDS011;38759;53.396;6.722;2023-09-07T08:45:13;6.80;;;5.57;;
52894;SDS011;38759;53.396;6.722;2023-09-07T08:47:41;7.20;;;5.60;;
52894;SDS011;38759;53.396;6.722;2023-09-07T08:50:09;6.03;;;4.85;;
52894;SDS011;38759;53.396;6.722;2023-09-07T08:52:35;10.10;;;5.38;;
52894;SDS011;38759;53.396;6.722;2023-09-07T08:55:02;7.15;;;4.57;;
52894;SDS011;38759;53.396;6.722;2023-09-07T08:57:30;8.18;;;4.93;;
52894;SDS011;38759;53.396;6.722;2023-09-07T08:59:56;9.45;;;5.32;;
52894;SDS011;38759;53.396;6.722;2023-09-07T09:02:22;6.78;;;4.75;;
52894;SDS011;38759;53.396;6.722;2023-09-07T09:04:48;11.18;;;5.07;;
52894;SDS011;38759;53.396;6.722;2023-09-07T09:07:14;8.95;;;5.25;;
52894;SDS011;38759;53.396;6.722;2023-09-07T09:09:39;6.95;;;4.32;;
52894;SDS011;38759;53.396;6.722;2023-09-07T09:12:11;9.18;;;4.60;;
52894;SDS011;38759;53.396;6.722;2023-09-07T09:14:42;10.40;;;4.72;;
52894;SDS011;38759;53.396;6.722;2023-09-07T09:17:13;8.18;;;5.15;;
52894;SDS011;38759;53.396;6.722;2023-09-07T09:19:39;9.77;;;5.10;;
52894;SDS011;38759;53.396;6.722;2023-09-07T09:22:06;6.80;;;4.80;;
52894;SDS011;38759;53.396;6.722;2023-09-07T09:24:35;6.05;;;4.68;;
52894;SDS011;38759;53.396;6.722;2023-09-07T09:27:01;8.70;;;4.95;;
52894;SDS011;38759;53.396;6.722;2023-09-07T09:29:27;8.70;;;4.85;;
52894;SDS011;38759;53.396;6.722;2023-09-07T09:31:53;10.63;;;5.25;;
52894;SDS011;38759;53.396;6.722;2023-09-07T09:34:20;12.13;;;4.80;;
52894;SDS011;38759;53.396;6.722;2023-09-07T09:36:46;8.00;;;4.35;;
52894;SDS011;38759;53.396;6.722;2023-09-07T09:39:21;19.05;;;5.05;;
52894;SDS011;38759;53.396;6.722;2023-09-07T09:41:50;7.95;;;4.13;;
52894;SDS011;38759;53.396;6.722;2023-09-07T09:44:17;13.82;;;4.50;;
52894;SDS011;38759;53.396;6.722;2023-09-07T09:46:46;9.23;;;4.47;;
52894;SDS011;38759;53.396;6.722;2023-09-07T09:49:13;8.45;;;4.63;;
52894;SDS011;38759;53.396;6.722;2023-09-07T09:51:40;12.65;;;4.20;;
52894;SDS011;38759;53.396;6.722;2023-09-07T09:54:08;9.65;;;4.10;;
52894;SDS011;38759;53.396;6.722;2023-09-07T09:56:35;10.40;;;4.80;;
52894;SDS011;38759;53.396;6.722;2023-09-07T09:59:00;9.82;;;4.22;;
52894;SDS011;38759;53.396;6.722;2023-09-07T10:01:26;7.97;;;4.65;;
52894;SDS011;38759;53.396;6.722;2023-09-07T10:03:54;6.80;;;4.40;;
52894;SDS011;38759;53.396;6.722;2023-09-07T10:06:24;7.00;;;4.22;;
52894;SDS011;38759;53.396;6.722;2023-09-07T10:08:58;7.75;;;4.28;;
52894;SDS011;38759;53.396;6.722;2023-09-07T10:11:33;5.57;;;4.05;;
52894;SDS011;38759;53.396;6.722;2023-09-07T10:14:02;11.30;;;4.65;;
52894;SDS011;38759;53.396;6.722;2023-09-07T10:16:40;12.05;;;4.22;;
52894;SDS011;38759;53.396;6.722;2023-09-07T10:19:40;8.80;;;4.07;;
52894;SDS011;38759;53.396;6.722;2023-09-07T10:22:01;9.52;;;3.70;;
52894;SDS011;38759;53.396;6.722;2023-09-07T10:24:32;6.57;;;3.80;;
52894;SDS011;38759;53.396;6.722;2023-09-07T10:27:02;8.73;;;4.22;;
52894;SDS011;38759;53.396;6.722;2023-09-07T10:29:50;7.97;;;3.78;;
52894;SDS011;38759;53.396;6.722;2023-09-07T10:32:17;10.25;;;3.97;;
52894;SDS011;38759;53.396;6.722;2023-09-07T10:34:43;8.23;;;3.90;;
52894;SDS011;38759;53.396;6.722;2023-09-07T10:37:12;5.13;;;3.63;;
52894;SDS011;38759;53.396;6.722;2023-09-07T10:39:40;6.20;;;4.00;;
52894;SDS011;38759;53.396;6.722;2023-09-07T10:42:08;9.75;;;3.60;;
52894;SDS011;38759;53.396;6.722;2023-09-07T10:44:44;5.95;;;3.83;;
52894;SDS011;38759;53.396;6.722;2023-09-07T10:47:10;5.95;;;3.50;;
52894;SDS011;38759;53.396;6.722;2023-09-07T10:49:37;4.78;;;3.75;;
52894;SDS011;38759;53.396;6.722;2023-09-07T10:52:02;4.22;;;3.67;;
52894;SDS011;38759;53.396;6.722;2023-09-07T10:54:29;6.82;;;3.30;;
52894;SDS011;38759;53.396;6.722;2023-09-07T10:56:54;13.23;;;4.13;;
52894;SDS011;38759;53.396;6.722;2023-09-07T10:59:22;6.95;;;3.50;;
52894;SDS011;38759;53.396;6.722;2023-09-07T11:01:48;5.57;;;3.67;;
52894;SDS011;38759;53.396;6.722;2023-09-07T11:04:14;5.15;;;3.30;;
52894;SDS011;38759;53.396;6.722;2023-09-07T11:06:42;9.25;;;3.80;;
52894;SDS011;38759;53.396;6.722;2023-09-07T11:09:08;6.85;;;3.50;;
52894;SDS011;38759;53.396;6.722;2023-09-07T11:11:37;4.50;;;3.50;;
52894;SDS011;38759;53.396;6.722;2023-09-07T11:14:03;5.80;;;3.80;;
52894;SDS011;38759;53.396;6.722;2023-09-07T11:16:30;6.78;;;3.72;;
52894;SDS011;38759;53.396;6.722;2023-09-07T11:18:57;6.75;;;3.67;;
52894;SDS011;38759;53.396;6.722;2023-09-07T11:21:30;8.45;;;4.20;;
52894;SDS011;38759;53.396;6.722;2023-09-07T11:23:59;8.70;;;3.70;;
52894;SDS011;38759;53.396;6.722;2023-09-07T11:26:25;6.90;;;3.50;;
52894;SDS011;38759;53.396;6.722;2023-09-07T11:28:51;7.43;;;3.45;;
52894;SDS011;38759;53.396;6.722;2023-09-07T11:31:19;10.48;;;3.70;;
52894;SDS011;38759;53.396;6.722;2023-09-07T11:33:48;4.07;;;3.65;;
52894;SDS011;38759;53.396;6.722;2023-09-07T11:36:14;9.77;;;3.55;;
52894;SDS011;38759;53.396;6.722;2023-09-07T11:38:42;5.88;;;3.00;;
52894;SDS011;38759;53.396;6.722;2023-09-07T11:41:08;7.70;;;3.53;;
52894;SDS011;38759;53.396;6.722;2023-09-07T11:43:34;9.75;;;3.70;;
52894;SDS011;38759;53.396;6.722;2023-09-07T11:46:00;6.88;;;3.63;;
52894;SDS011;38759;53.396;6.722;2023-09-07T11:48:26;4.85;;;3.90;;
52894;SDS011;38759;53.396;6.722;2023-09-07T11:50:53;4.07;;;3.45;;
52894;SDS011;38759;53.396;6.722;2023-09-07T11:53:19;10.93;;;3.20;;
52894;SDS011;38759;53.396;6.722;2023-09-07T11:55:44;5.32;;;3.22;;
52894;SDS011;38759;53.396;6.722;2023-09-07T11:58:10;7.35;;;3.60;;
52894;SDS011;38759;53.396;6.722;2023-09-07T12:00:36;8.35;;;4.00;;
52894;SDS011;38759;53.396;6.722;2023-09-07T12:03:02;4.15;;;3.38;;
52894;SDS011;38759;53.396;6.722;2023-09-07T12:05:28;8.43;;;3.60;;
52894;SDS011;38759;53.396;6.722;2023-09-07T12:07:54;6.97;;;3.63;;
52894;SDS011;38759;53.396;6.722;2023-09-07T12:10:19;10.65;;;3.75;;
52894;SDS011;38759;53.396;6.722;2023-09-07T12:12:45;8.32;;;3.40;;
52894;SDS011;38759;53.396;6.722;2023-09-07T12:15:11;10.05;;;3.67;;
52894;SDS011;38759;53.396;6.722;2023-09-07T12:17:37;6.63;;;3.45;;
52894;SDS011;38759;53.396;6.722;2023-09-07T12:20:03;11.18;;;3.60;;
52894;SDS011;38759;53.396;6.722;2023-09-07T12:22:35;8.25;;;3.40;;
52894;SDS011;38759;53.396;6.722;2023-09-07T12:25:03;7.78;;;3.55;;
52894;SDS011;38759;53.396;6.722;2023-09-07T12:27:32;4.97;;;3.83;;
52894;SDS011;38759;53.396;6.722;2023-09-07T12:29:59;8.63;;;3.67;;
52894;SDS011;38759;53.396;6.722;2023-09-07T12:32:25;10.55;;;3.50;;
52894;SDS011;38759;53.396;6.722;2023-09-07T12:34:50;6.22;;;3.60;;
52894;SDS011;38759;53.396;6.722;2023-09-07T12:37:18;4.63;;;3.33;;
52894;SDS011;38759;53.396;6.722;2023-09-07T12:39:44;5.85;;;2.92;;
52894;SDS011;38759;53.396;6.722;2023-09-07T12:42:10;8.07;;;3.63;;
52894;SDS011;38759;53.396;6.722;2023-09-07T12:44:36;10.68;;;3.50;;
52894;SDS011;38759;53.396;6.722;2023-09-07T12:47:01;8.20;;;3.60;;
52894;SDS011;38759;53.396;6.722;2023-09-07T12:49:27;6.00;;;3.30;;
52894;SDS011;38759;53.396;6.722;2023-09-07T12:51:52;7.80;;;3.38;;
52894;SDS011;38759;53.396;6.722;2023-09-07T12:54:18;9.18;;;3.33;;
52894;SDS011;38759;53.396;6.722;2023-09-07T12:56:44;5.72;;;3.35;;
52894;SDS011;38759;53.396;6.722;2023-09-07T12:59:10;11.23;;;3.25;;
52894;SDS011;38759;53.396;6.722;2023-09-07T13:01:36;4.85;;;3.22;;
52894;SDS011;38759;53.396;6.722;2023-09-07T13:04:01;6.47;;;3.30;;
52894;SDS011;38759;53.396;6.722;2023-09-07T13:06:28;5.40;;;3.05;;
52894;SDS011;38759;53.396;6.722;2023-09-07T13:08:53;6.07;;;3.60;;
52894;SDS011;38759;53.396;6.722;2023-09-07T13:11:19;7.95;;;3.40;;
52894;SDS011;38759;53.396;6.722;2023-09-07T13:13:45;5.47;;;3.03;;
52894;SDS011;38759;53.396;6.722;2023-09-07T13:16:10;7.68;;;3.50;;
52894;SDS011;38759;53.396;6.722;2023-09-07T13:18:37;7.63;;;3.30;;
52894;SDS011;38759;53.396;6.722;2023-09-07T13:21:03;7.20;;;3.35;;
52894;SDS011;38759;53.396;6.722;2023-09-07T13:23:29;3.35;;;2.90;;
52894;SDS011;38759;53.396;6.722;2023-09-07T13:25:56;4.53;;;3.40;;
52894;SDS011;38759;53.396;6.722;2023-09-07T13:28:23;8.90;;;3.35;;
52894;SDS011;38759;53.396;6.722;2023-09-07T13:30:51;9.32;;;3.75;;
52894;SDS011;38759;53.396;6.722;2023-09-07T13:33:17;5.68;;;3.22;;
52894;SDS011;38759;53.396;6.722;2023-09-07T13:35:43;5.65;;;3.53;;
52894;SDS011;38759;53.396;6.722;2023-09-07T13:38:10;9.10;;;3.35;;
52894;SDS011;38759;53.396;6.722;2023-09-07T13:40:36;7.30;;;2.88;;
52894;SDS011;38759;53.396;6.722;2023-09-07T13:43:01;7.18;;;3.30;;
52894;SDS011;38759;53.396;6.722;2023-09-07T13:45:27;12.73;;;3.17;;
52894;SDS011;38759;53.396;6.722;2023-09-07T13:47:54;4.68;;;3.20;;
52894;SDS011;38759;53.396;6.722;2023-09-07T13:50:21;10.35;;;3.70;;
52894;SDS011;38759;53.396;6.722;2023-09-07T13:52:47;10.02;;;3.50;;
52894;SDS011;38759;53.396;6.722;2023-09-07T13:55:13;12.25;;;3.97;;
52894;SDS011;38759;53.396;6.722;2023-09-07T13:57:38;8.48;;;4.22;;
52894;SDS011;38759;53.396;6.722;2023-09-07T14:00:04;7.00;;;3.30;;
52894;SDS011;38759;53.396;6.722;2023-09-07T14:02:31;7.53;;;3.30;;
52894;SDS011;38759;53.396;6.722;2023-09-07T14:04:57;7.45;;;3.50;;
52894;SDS011;38759;53.396;6.722;2023-09-07T14:07:23;9.00;;;3.53;;
52894;SDS011;38759;53.396;6.722;2023-09-07T14:09:51;6.38;;;3.78;;
52894;SDS011;38759;53.396;6.722;2023-09-07T14:12:18;6.97;;;3.60;;
52894;SDS011;38759;53.396;6.722;2023-09-07T14:14:44;7.80;;;3.83;;
52894;SDS011;38759;53.396;6.722;2023-09-07T14:17:10;11.63;;;3.22;;
52894;SDS011;38759;53.396;6.722;2023-09-07T14:19:35;5.25;;;3.40;;
52894;SDS011;38759;53.396;6.722;2023-09-07T14:22:01;8.98;;;3.70;;
52894;SDS011;38759;53.396;6.722;2023-09-07T14:24:27;9.95;;;3.55;;
52894;SDS011;38759;53.396;6.722;2023-09-07T14:26:55;4.35;;;3.20;;
52894;SDS011;38759;53.396;6.722;2023-09-07T14:29:21;8.15;;;3.58;;
52894;SDS011;38759;53.396;6.722;2023-09-07T14:31:46;6.13;;;3.50;;
52894;SDS011;38759;53.396;6.722;2023-09-07T14:34:12;6.68;;;3.17;;
52894;SDS011;38759;53.396;6.722;2023-09-07T14:36:38;6.65;;;3.40;;
52894;SDS011;38759;53.396;6.722;2023-09-07T14:39:07;4.35;;;3.40;;
52894;SDS011;38759;53.396;6.722;2023-09-07T14:41:34;12.45;;;3.70;;
52894;SDS011;38759;53.396;6.722;2023-09-07T14:44:00;10.38;;;3.50;;